Terminal Aerodrome Forecast
Issued by NWS Topeka, KS

Home | Current Version | Previous Version | Text Only | Print | Product List | Glossary Off
Versions: 1 2 3 4 5 6 7 8 9 10 11 12 13 14 15 16 17 18 19 20 21 22 23 24 25 26 27

000
FTUS43 KTOP 292320
TAFTOP
TAF
KTOP 292320Z 3000/3024 06015G22KT P6SM SCT010 OVC015
      TEMPO 3000/3004 5SM -SHRA BKN008 OVC010
     FM300700 10010KT 5SM -RA VCTS BKN008 OVC012CB
     FM301400 21011KT P6SM SCT008 BKN015
     FM301900 24009KT P6SM SCT040=

USA.gov is the U.S. government's official web portal to all federal, state and local government web resources and services.